sensor_id;sensor_type;location;lat;lon;timestamp;P1;durP1;ratioP1;P2;durP2;ratioP2
62654;SDS011;48717;55.556;37.816;2023-11-19T00:00:18;34.28;;;10.93;;
62654;SDS011;48717;55.556;37.816;2023-11-19T00:02:45;34.65;;;10.45;;
62654;SDS011;48717;55.556;37.816;2023-11-19T00:05:14;37.22;;;11.98;;
62654;SDS011;48717;55.556;37.816;2023-11-19T00:07:41;33.33;;;11.75;;
62654;SDS011;48717;55.556;37.816;2023-11-19T00:10:09;41.20;;;11.77;;
62654;SDS011;48717;55.556;37.816;2023-11-19T00:12:41;26.15;;;10.13;;
62654;SDS011;48717;55.556;37.816;2023-11-19T00:15:10;41.65;;;11.90;;
62654;SDS011;48717;55.556;37.816;2023-11-19T00:17:42;45.88;;;11.57;;
62654;SDS011;48717;55.556;37.816;2023-11-19T00:20:12;31.58;;;10.90;;
62654;SDS011;48717;55.556;37.816;2023-11-19T00:22:43;35.47;;;13.00;;
62654;SDS011;48717;55.556;37.816;2023-11-19T00:25:13;29.83;;;10.45;;
62654;SDS011;48717;55.556;37.816;2023-11-19T00:27:41;37.38;;;10.93;;
62654;SDS011;48717;55.556;37.816;2023-11-19T00:30:11;38.15;;;13.65;;
62654;SDS011;48717;55.556;37.816;2023-11-19T00:32:40;29.58;;;10.85;;
62654;SDS011;48717;55.556;37.816;2023-11-19T00:35:08;45.80;;;13.32;;
62654;SDS011;48717;55.556;37.816;2023-11-19T00:37:42;40.05;;;11.13;;
62654;SDS011;48717;55.556;37.816;2023-11-19T00:40:09;37.97;;;12.13;;
62654;SDS011;48717;55.556;37.816;2023-11-19T00:42:38;36.30;;;12.60;;
62654;SDS011;48717;55.556;37.816;2023-11-19T00:45:05;46.50;;;12.50;;
62654;SDS011;48717;55.556;37.816;2023-11-19T00:47:38;45.17;;;12.90;;
62654;SDS011;48717;55.556;37.816;2023-11-19T00:50:06;31.52;;;11.15;;
62654;SDS011;48717;55.556;37.816;2023-11-19T00:52:37;42.75;;;13.20;;
62654;SDS011;48717;55.556;37.816;2023-11-19T00:55:05;29.05;;;10.50;;
62654;SDS011;48717;55.556;37.816;2023-11-19T00:57:34;31.57;;;13.23;;
62654;SDS011;48717;55.556;37.816;2023-11-19T01:00:02;34.70;;;13.02;;
62654;SDS011;48717;55.556;37.816;2023-11-19T01:02:36;29.95;;;12.13;;
62654;SDS011;48717;55.556;37.816;2023-11-19T01:05:03;21.42;;;9.50;;
62654;SDS011;48717;55.556;37.816;2023-11-19T01:07:31;37.22;;;12.35;;
62654;SDS011;48717;55.556;37.816;2023-11-19T01:09:58;44.65;;;13.48;;
62654;SDS011;48717;55.556;37.816;2023-11-19T01:12:25;43.35;;;11.95;;
62654;SDS011;48717;55.556;37.816;2023-11-19T01:14:52;47.30;;;12.15;;
62654;SDS011;48717;55.556;37.816;2023-11-19T01:17:19;34.33;;;11.27;;
62654;SDS011;48717;55.556;37.816;2023-11-19T01:19:46;35.10;;;13.18;;
62654;SDS011;48717;55.556;37.816;2023-11-19T01:22:13;42.17;;;14.55;;
62654;SDS011;48717;55.556;37.816;2023-11-19T01:24:40;34.83;;;12.82;;
62654;SDS011;48717;55.556;37.816;2023-11-19T01:27:07;33.58;;;13.60;;
62654;SDS011;48717;55.556;37.816;2023-11-19T01:29:35;40.40;;;13.80;;
62654;SDS011;48717;55.556;37.816;2023-11-19T01:32:02;39.95;;;13.98;;
62654;SDS011;48717;55.556;37.816;2023-11-19T01:34:29;34.38;;;12.88;;
62654;SDS011;48717;55.556;37.816;2023-11-19T01:36:56;33.10;;;13.00;;
62654;SDS011;48717;55.556;37.816;2023-11-19T01:39:23;38.65;;;13.50;;
62654;SDS011;48717;55.556;37.816;2023-11-19T01:41:50;37.78;;;13.13;;
62654;SDS011;48717;55.556;37.816;2023-11-19T01:44:18;33.28;;;12.07;;
62654;SDS011;48717;55.556;37.816;2023-11-19T01:46:45;34.80;;;13.02;;
62654;SDS011;48717;55.556;37.816;2023-11-19T01:49:17;31.25;;;11.82;;
62654;SDS011;48717;55.556;37.816;2023-11-19T01:51:46;32.58;;;13.25;;
62654;SDS011;48717;55.556;37.816;2023-11-19T01:54:15;30.45;;;12.15;;
62654;SDS011;48717;55.556;37.816;2023-11-19T01:56:42;27.20;;;9.85;;
62654;SDS011;48717;55.556;37.816;2023-11-19T01:59:10;25.23;;;10.55;;
62654;SDS011;48717;55.556;37.816;2023-11-19T02:01:40;27.58;;;11.27;;
62654;SDS011;48717;55.556;37.816;2023-11-19T02:04:09;30.83;;;13.32;;
62654;SDS011;48717;55.556;37.816;2023-11-19T02:06:40;19.77;;;9.85;;
62654;SDS011;48717;55.556;37.816;2023-11-19T02:09:09;30.63;;;11.57;;
62654;SDS011;48717;55.556;37.816;2023-11-19T02:11:39;36.80;;;12.73;;
62654;SDS011;48717;55.556;37.816;2023-11-19T02:14:07;32.42;;;11.48;;
62654;SDS011;48717;55.556;37.816;2023-11-19T02:16:35;25.77;;;11.38;;
62654;SDS011;48717;55.556;37.816;2023-11-19T02:19:02;17.88;;;8.20;;
62654;SDS011;48717;55.556;37.816;2023-11-19T02:21:50;31.85;;;11.55;;
62654;SDS011;48717;55.556;37.816;2023-11-19T02:24:17;32.05;;;12.77;;
62654;SDS011;48717;55.556;37.816;2023-11-19T02:26:58;42.22;;;12.98;;
62654;SDS011;48717;55.556;37.816;2023-11-19T02:29:36;32.90;;;13.45;;
62654;SDS011;48717;55.556;37.816;2023-11-19T02:32:04;38.20;;;13.27;;
62654;SDS011;48717;55.556;37.816;2023-11-19T02:34:32;24.40;;;10.77;;
62654;SDS011;48717;55.556;37.816;2023-11-19T02:36:59;28.00;;;13.15;;
62654;SDS011;48717;55.556;37.816;2023-11-19T02:39:26;34.83;;;12.30;;
62654;SDS011;48717;55.556;37.816;2023-11-19T02:41:53;34.83;;;13.48;;
62654;SDS011;48717;55.556;37.816;2023-11-19T02:44:20;32.95;;;13.45;;
62654;SDS011;48717;55.556;37.816;2023-11-19T02:46:47;34.22;;;13.95;;
62654;SDS011;48717;55.556;37.816;2023-11-19T02:49:15;31.52;;;13.18;;
62654;SDS011;48717;55.556;37.816;2023-11-19T02:51:42;42.20;;;14.32;;
62654;SDS011;48717;55.556;37.816;2023-11-19T02:54:09;35.50;;;13.18;;
62654;SDS011;48717;55.556;37.816;2023-11-19T02:56:37;32.65;;;12.65;;
62654;SDS011;48717;55.556;37.816;2023-11-19T02:59:05;43.47;;;15.52;;
62654;SDS011;48717;55.556;37.816;2023-11-19T03:01:41;42.95;;;14.20;;
62654;SDS011;48717;55.556;37.816;2023-11-19T03:04:10;29.70;;;12.57;;
62654;SDS011;48717;55.556;37.816;2023-11-19T03:06:39;32.92;;;13.55;;
62654;SDS011;48717;55.556;37.816;2023-11-19T03:09:06;37.28;;;11.38;;
62654;SDS011;48717;55.556;37.816;2023-11-19T03:11:37;40.22;;;14.85;;
62654;SDS011;48717;55.556;37.816;2023-11-19T03:14:05;38.70;;;12.73;;
62654;SDS011;48717;55.556;37.816;2023-11-19T03:16:32;24.02;;;10.55;;
62654;SDS011;48717;55.556;37.816;2023-11-19T03:18:59;32.72;;;11.82;;
62654;SDS011;48717;55.556;37.816;2023-11-19T03:21:30;24.10;;;10.65;;
62654;SDS011;48717;55.556;37.816;2023-11-19T03:23:58;40.92;;;14.63;;
62654;SDS011;48717;55.556;37.816;2023-11-19T03:28:56;10.93;;;6.72;;
62654;SDS011;48717;55.556;37.816;2023-11-19T03:31:24;17.80;;;8.63;;
62654;SDS011;48717;55.556;37.816;2023-11-19T03:33:51;25.48;;;9.80;;
62654;SDS011;48717;55.556;37.816;2023-11-19T03:36:21;21.83;;;8.37;;
62654;SDS011;48717;55.556;37.816;2023-11-19T03:38:49;31.25;;;11.50;;
62654;SDS011;48717;55.556;37.816;2023-11-19T03:41:16;26.10;;;10.23;;
62654;SDS011;48717;55.556;37.816;2023-11-19T03:43:44;40.83;;;11.38;;
62654;SDS011;48717;55.556;37.816;2023-11-19T03:46:18;33.45;;;13.50;;
62654;SDS011;48717;55.556;37.816;2023-11-19T03:48:49;29.05;;;11.45;;
62654;SDS011;48717;55.556;37.816;2023-11-19T03:51:17;34.17;;;12.45;;
62654;SDS011;48717;55.556;37.816;2023-11-19T03:53:44;39.00;;;14.07;;
62654;SDS011;48717;55.556;37.816;2023-11-19T03:56:12;42.97;;;14.40;;
62654;SDS011;48717;55.556;37.816;2023-11-19T03:58:39;34.95;;;11.23;;
62654;SDS011;48717;55.556;37.816;2023-11-19T04:01:13;43.58;;;14.35;;
62654;SDS011;48717;55.556;37.816;2023-11-19T04:03:41;35.45;;;12.75;;
62654;SDS011;48717;55.556;37.816;2023-11-19T04:06:11;32.05;;;13.02;;
62654;SDS011;48717;55.556;37.816;2023-11-19T04:08:38;34.72;;;13.57;;
62654;SDS011;48717;55.556;37.816;2023-11-19T04:11:05;41.85;;;13.55;;
62654;SDS011;48717;55.556;37.816;2023-11-19T04:13:32;41.10;;;13.15;;
62654;SDS011;48717;55.556;37.816;2023-11-19T04:15:59;43.78;;;14.57;;
62654;SDS011;48717;55.556;37.816;2023-11-19T04:18:27;29.33;;;12.30;;
62654;SDS011;48717;55.556;37.816;2023-11-19T04:20:54;31.20;;;13.27;;
62654;SDS011;48717;55.556;37.816;2023-11-19T04:23:21;30.48;;;14.00;;
62654;SDS011;48717;55.556;37.816;2023-11-19T04:25:48;30.70;;;13.02;;
62654;SDS011;48717;55.556;37.816;2023-11-19T04:28:15;28.10;;;13.55;;
62654;SDS011;48717;55.556;37.816;2023-11-19T04:30:42;29.17;;;12.82;;
62654;SDS011;48717;55.556;37.816;2023-11-19T04:33:09;39.00;;;13.40;;
62654;SDS011;48717;55.556;37.816;2023-11-19T04:35:36;35.95;;;13.43;;
62654;SDS011;48717;55.556;37.816;2023-11-19T04:38:03;38.67;;;14.00;;
62654;SDS011;48717;55.556;37.816;2023-11-19T04:40:30;39.33;;;14.57;;
62654;SDS011;48717;55.556;37.816;2023-11-19T04:42:58;28.15;;;12.55;;
62654;SDS011;48717;55.556;37.816;2023-11-19T04:45:24;31.73;;;13.13;;
62654;SDS011;48717;55.556;37.816;2023-11-19T04:47:51;32.88;;;13.35;;
62654;SDS011;48717;55.556;37.816;2023-11-19T04:50:18;29.98;;;11.98;;
62654;SDS011;48717;55.556;37.816;2023-11-19T04:52:46;43.40;;;14.48;;
62654;SDS011;48717;55.556;37.816;2023-11-19T04:55:13;28.95;;;12.85;;
62654;SDS011;48717;55.556;37.816;2023-11-19T04:57:41;34.90;;;13.55;;
62654;SDS011;48717;55.556;37.816;2023-11-19T05:00:09;28.08;;;11.82;;
62654;SDS011;48717;55.556;37.816;2023-11-19T05:02:40;34.78;;;12.52;;
62654;SDS011;48717;55.556;37.816;2023-11-19T05:05:08;30.13;;;11.70;;
62654;SDS011;48717;55.556;37.816;2023-11-19T05:07:36;26.05;;;11.07;;
62654;SDS011;48717;55.556;37.816;2023-11-19T05:10:03;53.28;;;19.65;;
62654;SDS011;48717;55.556;37.816;2023-11-19T05:12:32;27.55;;;12.05;;
62654;SDS011;48717;55.556;37.816;2023-11-19T05:14:59;44.58;;;15.55;;
62654;SDS011;48717;55.556;37.816;2023-11-19T05:17:30;38.53;;;15.27;;
62654;SDS011;48717;55.556;37.816;2023-11-19T05:19:57;36.13;;;14.43;;
62654;SDS011;48717;55.556;37.816;2023-11-19T05:22:24;34.67;;;14.88;;
62654;SDS011;48717;55.556;37.816;2023-11-19T05:24:52;30.30;;;13.50;;
62654;SDS011;48717;55.556;37.816;2023-11-19T05:27:19;30.42;;;13.52;;
62654;SDS011;48717;55.556;37.816;2023-11-19T05:29:46;38.80;;;14.93;;
62654;SDS011;48717;55.556;37.816;2023-11-19T05:32:13;54.83;;;23.55;;
62654;SDS011;48717;55.556;37.816;2023-11-19T05:34:40;53.65;;;18.23;;
62654;SDS011;48717;55.556;37.816;2023-11-19T05:37:11;37.33;;;15.60;;
62654;SDS011;48717;55.556;37.816;2023-11-19T05:39:38;42.15;;;17.77;;
62654;SDS011;48717;55.556;37.816;2023-11-19T05:42:05;43.55;;;18.30;;
62654;SDS011;48717;55.556;37.816;2023-11-19T05:44:33;37.22;;;15.43;;
62654;SDS011;48717;55.556;37.816;2023-11-19T05:47:01;44.83;;;18.40;;
62654;SDS011;48717;55.556;37.816;2023-11-19T05:49:29;38.22;;;16.65;;
62654;SDS011;48717;55.556;37.816;2023-11-19T05:51:56;34.88;;;14.23;;
62654;SDS011;48717;55.556;37.816;2023-11-19T05:54:24;30.85;;;12.05;;
62654;SDS011;48717;55.556;37.816;2023-11-19T05:56:53;32.22;;;13.00;;
62654;SDS011;48717;55.556;37.816;2023-11-19T05:59:21;32.92;;;13.30;;
62654;SDS011;48717;55.556;37.816;2023-11-19T06:01:49;28.85;;;12.38;;
62654;SDS011;48717;55.556;37.816;2023-11-19T06:04:16;31.83;;;14.15;;
62654;SDS011;48717;55.556;37.816;2023-11-19T06:06:44;30.23;;;12.63;;
62654;SDS011;48717;55.556;37.816;2023-11-19T06:09:11;40.40;;;14.88;;
62654;SDS011;48717;55.556;37.816;2023-11-19T06:11:40;38.03;;;14.18;;
62654;SDS011;48717;55.556;37.816;2023-11-19T06:14:07;32.63;;;12.13;;
62654;SDS011;48717;55.556;37.816;2023-11-19T06:16:34;40.42;;;14.15;;
62654;SDS011;48717;55.556;37.816;2023-11-19T06:19:04;32.40;;;14.40;;
62654;SDS011;48717;55.556;37.816;2023-11-19T06:21:31;35.55;;;15.10;;
62654;SDS011;48717;55.556;37.816;2023-11-19T06:23:58;34.72;;;13.73;;
62654;SDS011;48717;55.556;37.816;2023-11-19T06:26:26;35.28;;;14.27;;
62654;SDS011;48717;55.556;37.816;2023-11-19T06:28:54;34.25;;;13.35;;
62654;SDS011;48717;55.556;37.816;2023-11-19T06:31:21;38.60;;;15.50;;
62654;SDS011;48717;55.556;37.816;2023-11-19T06:33:49;42.45;;;14.70;;
62654;SDS011;48717;55.556;37.816;2023-11-19T06:36:16;39.20;;;14.82;;
62654;SDS011;48717;55.556;37.816;2023-11-19T06:38:43;39.15;;;15.90;;
62654;SDS011;48717;55.556;37.816;2023-11-19T06:41:10;39.47;;;13.68;;
62654;SDS011;48717;55.556;37.816;2023-11-19T06:43:38;42.08;;;17.85;;
62654;SDS011;48717;55.556;37.816;2023-11-19T06:46:15;41.60;;;14.93;;
62654;SDS011;48717;55.556;37.816;2023-11-19T06:48:44;37.85;;;16.27;;
62654;SDS011;48717;55.556;37.816;2023-11-19T06:51:12;37.83;;;15.85;;
62654;SDS011;48717;55.556;37.816;2023-11-19T06:53:40;34.53;;;14.00;;
62654;SDS011;48717;55.556;37.816;2023-11-19T06:56:23;34.60;;;13.80;;
62654;SDS011;48717;55.556;37.816;2023-11-19T06:58:51;32.33;;;13.25;;
62654;SDS011;48717;55.556;37.816;2023-11-19T07:01:19;28.70;;;12.52;;
62654;SDS011;48717;55.556;37.816;2023-11-19T07:03:47;30.60;;;12.95;;
62654;SDS011;48717;55.556;37.816;2023-11-19T07:06:15;35.78;;;14.05;;
62654;SDS011;48717;55.556;37.816;2023-11-19T07:08:42;34.15;;;13.07;;
62654;SDS011;48717;55.556;37.816;2023-11-19T07:11:14;30.30;;;14.07;;
62654;SDS011;48717;55.556;37.816;2023-11-19T07:13:43;36.58;;;14.68;;
62654;SDS011;48717;55.556;37.816;2023-11-19T07:16:14;32.23;;;14.20;;
62654;SDS011;48717;55.556;37.816;2023-11-19T07:18:41;26.40;;;12.82;;
62654;SDS011;48717;55.556;37.816;2023-11-19T07:21:11;28.42;;;12.40;;
62654;SDS011;48717;55.556;37.816;2023-11-19T07:23:38;30.00;;;12.00;;
62654;SDS011;48717;55.556;37.816;2023-11-19T07:26:05;15.25;;;7.38;;
62654;SDS011;48717;55.556;37.816;2023-11-19T07:28:35;28.92;;;11.77;;
62654;SDS011;48717;55.556;37.816;2023-11-19T07:31:03;22.75;;;10.02;;
62654;SDS011;48717;55.556;37.816;2023-11-19T07:33:30;27.25;;;12.65;;
62654;SDS011;48717;55.556;37.816;2023-11-19T07:35:58;23.10;;;10.93;;
62654;SDS011;48717;55.556;37.816;2023-11-19T07:38:25;20.13;;;8.80;;
62654;SDS011;48717;55.556;37.816;2023-11-19T07:40:52;18.13;;;8.32;;
62654;SDS011;48717;55.556;37.816;2023-11-19T07:45:49;14.20;;;7.35;;
62654;SDS011;48717;55.556;37.816;2023-11-19T07:48:16;24.33;;;9.15;;
62654;SDS011;48717;55.556;37.816;2023-11-19T07:50:44;22.30;;;7.78;;
62654;SDS011;48717;55.556;37.816;2023-11-19T07:53:12;18.35;;;8.63;;
62654;SDS011;48717;55.556;37.816;2023-11-19T07:55:40;24.13;;;10.75;;
62654;SDS011;48717;55.556;37.816;2023-11-19T07:58:08;24.77;;;9.88;;
62654;SDS011;48717;55.556;37.816;2023-11-19T08:00:37;17.33;;;8.10;;
62654;SDS011;48717;55.556;37.816;2023-11-19T08:03:04;17.85;;;8.73;;
62654;SDS011;48717;55.556;37.816;2023-11-19T08:05:32;20.65;;;7.95;;
62654;SDS011;48717;55.556;37.816;2023-11-19T08:07:59;7.78;;;4.45;;
62654;SDS011;48717;55.556;37.816;2023-11-19T08:10:26;16.95;;;6.05;;
62654;SDS011;48717;55.556;37.816;2023-11-19T08:12:54;12.63;;;5.47;;
62654;SDS011;48717;55.556;37.816;2023-11-19T08:15:21;17.85;;;7.43;;
62654;SDS011;48717;55.556;37.816;2023-11-19T08:17:51;13.27;;;5.70;;
62654;SDS011;48717;55.556;37.816;2023-11-19T08:20:18;13.77;;;6.63;;
62654;SDS011;48717;55.556;37.816;2023-11-19T08:22:47;17.10;;;7.05;;
62654;SDS011;48717;55.556;37.816;2023-11-19T08:25:14;12.00;;;4.53;;
62654;SDS011;48717;55.556;37.816;2023-11-19T08:27:41;4.80;;;2.65;;
62654;SDS011;48717;55.556;37.816;2023-11-19T08:30:10;24.80;;;6.65;;
62654;SDS011;48717;55.556;37.816;2023-11-19T08:32:37;12.52;;;4.13;;
62654;SDS011;48717;55.556;37.816;2023-11-19T08:35:05;11.90;;;5.38;;
62654;SDS011;48717;55.556;37.816;2023-11-19T08:37:33;15.35;;;7.05;;
62654;SDS011;48717;55.556;37.816;2023-11-19T08:40:03;13.55;;;6.05;;
62654;SDS011;48717;55.556;37.816;2023-11-19T08:42:31;13.55;;;5.03;;
62654;SDS011;48717;55.556;37.816;2023-11-19T08:44:58;16.58;;;7.03;;
62654;SDS011;48717;55.556;37.816;2023-11-19T08:47:26;11.75;;;6.07;;
62654;SDS011;48717;55.556;37.816;2023-11-19T08:49:53;11.88;;;5.18;;
62654;SDS011;48717;55.556;37.816;2023-11-19T08:52:24;15.07;;;6.80;;
62654;SDS011;48717;55.556;37.816;2023-11-19T08:54:51;11.82;;;4.82;;
62654;SDS011;48717;55.556;37.816;2023-11-19T08:57:18;12.98;;;5.43;;
62654;SDS011;48717;55.556;37.816;2023-11-19T08:59:46;12.05;;;5.55;;
62654;SDS011;48717;55.556;37.816;2023-11-19T09:02:13;13.30;;;5.50;;
62654;SDS011;48717;55.556;37.816;2023-11-19T09:04:40;15.32;;;5.28;;
62654;SDS011;48717;55.556;37.816;2023-11-19T09:07:08;13.80;;;6.45;;
62654;SDS011;48717;55.556;37.816;2023-11-19T09:09:36;8.80;;;5.15;;
62654;SDS011;48717;55.556;37.816;2023-11-19T09:12:03;14.25;;;5.90;;
62654;SDS011;48717;55.556;37.816;2023-11-19T09:14:31;10.00;;;5.45;;
62654;SDS011;48717;55.556;37.816;2023-11-19T09:16:58;14.98;;;4.88;;
62654;SDS011;48717;55.556;37.816;2023-11-19T09:19:26;10.77;;;4.65;;
62654;SDS011;48717;55.556;37.816;2023-11-19T09:21:53;13.18;;;4.78;;
62654;SDS011;48717;55.556;37.816;2023-11-19T09:24:20;13.70;;;5.75;;
62654;SDS011;48717;55.556;37.816;2023-11-19T09:26:47;12.65;;;5.53;;
62654;SDS011;48717;55.556;37.816;2023-11-19T09:29:15;4.40;;;2.38;;
62654;SDS011;48717;55.556;37.816;2023-11-19T09:31:43;9.90;;;4.07;;
62654;SDS011;48717;55.556;37.816;2023-11-19T09:34:10;12.82;;;6.00;;
62654;SDS011;48717;55.556;37.816;2023-11-19T09:36:37;8.43;;;5.25;;
62654;SDS011;48717;55.556;37.816;2023-11-19T09:39:04;15.65;;;5.50;;
62654;SDS011;48717;55.556;37.816;2023-11-19T09:41:34;14.70;;;4.68;;
62654;SDS011;48717;55.556;37.816;2023-11-19T09:44:02;13.10;;;5.90;;
62654;SDS011;48717;55.556;37.816;2023-11-19T09:46:29;17.88;;;5.68;;
62654;SDS011;48717;55.556;37.816;2023-11-19T09:48:57;13.52;;;4.75;;
62654;SDS011;48717;55.556;37.816;2023-11-19T09:51:26;15.02;;;5.57;;
62654;SDS011;48717;55.556;37.816;2023-11-19T09:53:53;9.40;;;4.88;;
62654;SDS011;48717;55.556;37.816;2023-11-19T09:56:20;10.82;;;5.10;;
62654;SDS011;48717;55.556;37.816;2023-11-19T09:58:49;12.30;;;5.50;;
62654;SDS011;48717;55.556;37.816;2023-11-19T10:01:16;10.18;;;5.38;;
62654;SDS011;48717;55.556;37.816;2023-11-19T10:03:55;8.95;;;3.90;;
62654;SDS011;48717;55.556;37.816;2023-11-19T10:06:22;11.80;;;5.00;;
62654;SDS011;48717;55.556;37.816;2023-11-19T10:08:53;14.02;;;5.03;;
62654;SDS011;48717;55.556;37.816;2023-11-19T10:11:20;11.73;;;4.65;;
62654;SDS011;48717;55.556;37.816;2023-11-19T10:13:47;9.35;;;4.88;;
62654;SDS011;48717;55.556;37.816;2023-11-19T10:16:15;9.18;;;5.07;;
62654;SDS011;48717;55.556;37.816;2023-11-19T10:18:44;10.88;;;5.47;;
62654;SDS011;48717;55.556;37.816;2023-11-19T10:21:19;10.95;;;5.20;;
62654;SDS011;48717;55.556;37.816;2023-11-19T10:23:50;12.70;;;5.55;;
62654;SDS011;48717;55.556;37.816;2023-11-19T10:26:20;10.52;;;5.45;;
62654;SDS011;48717;55.556;37.816;2023-11-19T10:28:48;14.00;;;5.93;;
62654;SDS011;48717;55.556;37.816;2023-11-19T10:31:19;11.90;;;6.57;;
62654;SDS011;48717;55.556;37.816;2023-11-19T10:33:52;10.38;;;5.38;;
62654;SDS011;48717;55.556;37.816;2023-11-19T10:36:20;14.25;;;6.00;;
62654;SDS011;48717;55.556;37.816;2023-11-19T10:38:53;13.32;;;6.07;;
62654;SDS011;48717;55.556;37.816;2023-11-19T10:44:33;13.32;;;5.63;;
62654;SDS011;48717;55.556;37.816;2023-11-19T10:47:05;14.73;;;6.20;;
62654;SDS011;48717;55.556;37.816;2023-11-19T10:49:32;9.52;;;5.43;;
62654;SDS011;48717;55.556;37.816;2023-11-19T10:52:01;19.53;;;6.33;;
62654;SDS011;48717;55.556;37.816;2023-11-19T10:54:31;14.73;;;6.50;;
62654;SDS011;48717;55.556;37.816;2023-11-19T10:57:01;16.08;;;7.70;;
62654;SDS011;48717;55.556;37.816;2023-11-19T10:59:29;11.43;;;5.88;;
62654;SDS011;48717;55.556;37.816;2023-11-19T11:02:03;14.25;;;6.80;;
62654;SDS011;48717;55.556;37.816;2023-11-19T11:04:33;15.57;;;7.60;;
62654;SDS011;48717;55.556;37.816;2023-11-19T11:07:06;13.85;;;6.20;;
62654;SDS011;48717;55.556;37.816;2023-11-19T11:09:34;11.23;;;5.88;;
62654;SDS011;48717;55.556;37.816;2023-11-19T11:12:02;16.25;;;6.60;;
62654;SDS011;48717;55.556;37.816;2023-11-19T11:14:31;13.27;;;5.97;;
62654;SDS011;48717;55.556;37.816;2023-11-19T11:17:02;20.00;;;6.20;;
62654;SDS011;48717;55.556;37.816;2023-11-19T11:19:30;15.45;;;6.50;;
62654;SDS011;48717;55.556;37.816;2023-11-19T11:21:57;10.75;;;6.22;;
62654;SDS011;48717;55.556;37.816;2023-11-19T11:33:10;17.63;;;7.60;;
62654;SDS011;48717;55.556;37.816;2023-11-19T11:35:50;13.73;;;7.32;;
62654;SDS011;48717;55.556;37.816;2023-11-19T11:38:25;14.95;;;7.55;;
62654;SDS011;48717;55.556;37.816;2023-11-19T11:43:54;14.75;;;6.88;;
62654;SDS011;48717;55.556;37.816;2023-11-19T11:49:06;14.38;;;6.15;;
62654;SDS011;48717;55.556;37.816;2023-11-19T11:59:46;11.45;;;6.47;;
62654;SDS011;48717;55.556;37.816;2023-11-19T12:02:16;13.43;;;6.75;;
62654;SDS011;48717;55.556;37.816;2023-11-19T12:04:51;18.45;;;9.18;;
62654;SDS011;48717;55.556;37.816;2023-11-19T12:07:23;6.05;;;2.75;;
62654;SDS011;48717;55.556;37.816;2023-11-19T12:09:52;17.90;;;7.78;;
62654;SDS011;48717;55.556;37.816;2023-11-19T12:12:34;14.25;;;7.43;;
62654;SDS011;48717;55.556;37.816;2023-11-19T12:15:06;18.20;;;7.35;;
62654;SDS011;48717;55.556;37.816;2023-11-19T12:17:40;14.25;;;6.85;;
62654;SDS011;48717;55.556;37.816;2023-11-19T12:20:18;17.63;;;7.57;;
62654;SDS011;48717;55.556;37.816;2023-11-19T12:22:49;15.40;;;7.18;;
62654;SDS011;48717;55.556;37.816;2023-11-19T12:25:17;15.60;;;6.50;;
62654;SDS011;48717;55.556;37.816;2023-11-19T12:27:50;17.40;;;7.78;;
62654;SDS011;48717;55.556;37.816;2023-11-19T12:30:26;17.67;;;7.53;;
62654;SDS011;48717;55.556;37.816;2023-11-19T12:32:54;17.17;;;8.07;;
62654;SDS011;48717;55.556;37.816;2023-11-19T12:35:22;21.30;;;10.63;;
62654;SDS011;48717;55.556;37.816;2023-11-19T12:37:51;18.45;;;8.75;;
62654;SDS011;48717;55.556;37.816;2023-11-19T12:40:24;14.60;;;7.93;;
62654;SDS011;48717;55.556;37.816;2023-11-19T12:42:52;18.83;;;8.15;;
62654;SDS011;48717;55.556;37.816;2023-11-19T12:45:21;18.88;;;8.35;;
62654;SDS011;48717;55.556;37.816;2023-11-19T12:48:04;19.80;;;8.02;;
62654;SDS011;48717;55.556;37.816;2023-11-19T12:50:55;23.40;;;9.43;;
62654;SDS011;48717;55.556;37.816;2023-11-19T12:53:28;21.90;;;8.07;;
62654;SDS011;48717;55.556;37.816;2023-11-19T12:55:56;17.83;;;8.27;;
62654;SDS011;48717;55.556;37.816;2023-11-19T12:58:35;16.95;;;7.15;;
62654;SDS011;48717;55.556;37.816;2023-11-19T13:01:03;19.27;;;8.57;;
62654;SDS011;48717;55.556;37.816;2023-11-19T13:03:33;20.95;;;9.30;;
62654;SDS011;48717;55.556;37.816;2023-11-19T13:06:09;24.50;;;10.48;;
62654;SDS011;48717;55.556;37.816;2023-11-19T13:08:39;20.02;;;9.43;;
62654;SDS011;48717;55.556;37.816;2023-11-19T13:11:07;20.45;;;9.70;;
62654;SDS011;48717;55.556;37.816;2023-11-19T13:14:22;14.90;;;7.72;;
62654;SDS011;48717;55.556;37.816;2023-11-19T13:16:27;17.98;;;7.88;;
62654;SDS011;48717;55.556;37.816;2023-11-19T13:18:56;21.13;;;9.75;;
62654;SDS011;48717;55.556;37.816;2023-11-19T13:21:24;20.30;;;9.30;;
62654;SDS011;48717;55.556;37.816;2023-11-19T13:23:51;20.77;;;9.30;;
62654;SDS011;48717;55.556;37.816;2023-11-19T13:26:18;22.80;;;10.32;;
62654;SDS011;48717;55.556;37.816;2023-11-19T13:28:46;21.35;;;10.10;;
62654;SDS011;48717;55.556;37.816;2023-11-19T13:31:13;19.15;;;8.98;;
62654;SDS011;48717;55.556;37.816;2023-11-19T13:33:41;24.88;;;10.20;;
62654;SDS011;48717;55.556;37.816;2023-11-19T13:36:09;35.15;;;14.23;;
62654;SDS011;48717;55.556;37.816;2023-11-19T13:38:41;24.65;;;10.05;;
62654;SDS011;48717;55.556;37.816;2023-11-19T13:41:11;28.07;;;11.43;;
62654;SDS011;48717;55.556;37.816;2023-11-19T13:43:39;16.80;;;6.82;;
62654;SDS011;48717;55.556;37.816;2023-11-19T13:46:07;19.95;;;9.32;;
62654;SDS011;48717;55.556;37.816;2023-11-19T13:48:37;25.85;;;11.98;;
62654;SDS011;48717;55.556;37.816;2023-11-19T13:51:05;27.48;;;12.10;;
62654;SDS011;48717;55.556;37.816;2023-11-19T13:53:32;26.85;;;12.00;;
62654;SDS011;48717;55.556;37.816;2023-11-19T13:56:17;29.70;;;11.73;;
62654;SDS011;48717;55.556;37.816;2023-11-19T13:58:45;28.52;;;11.20;;
62654;SDS011;48717;55.556;37.816;2023-11-19T14:01:12;31.40;;;12.65;;
62654;SDS011;48717;55.556;37.816;2023-11-19T14:03:40;25.30;;;10.68;;
62654;SDS011;48717;55.556;37.816;2023-11-19T14:06:09;26.48;;;12.73;;
62654;SDS011;48717;55.556;37.816;2023-11-19T14:08:36;32.67;;;12.93;;
62654;SDS011;48717;55.556;37.816;2023-11-19T14:11:04;38.13;;;16.17;;
62654;SDS011;48717;55.556;37.816;2023-11-19T14:13:32;21.05;;;9.35;;
62654;SDS011;48717;55.556;37.816;2023-11-19T14:15:59;33.22;;;12.98;;
62654;SDS011;48717;55.556;37.816;2023-11-19T14:18:28;37.28;;;15.82;;
62654;SDS011;48717;55.556;37.816;2023-11-19T14:20:55;12.25;;;5.32;;
62654;SDS011;48717;55.556;37.816;2023-11-19T14:23:22;35.42;;;12.30;;
62654;SDS011;48717;55.556;37.816;2023-11-19T14:25:51;15.02;;;6.55;;
62654;SDS011;48717;55.556;37.816;2023-11-19T14:28:18;15.20;;;6.68;;
62654;SDS011;48717;55.556;37.816;2023-11-19T14:30:46;34.65;;;11.68;;
62654;SDS011;48717;55.556;37.816;2023-11-19T14:35:44;34.03;;;12.50;;
62654;SDS011;48717;55.556;37.816;2023-11-19T14:38:11;34.65;;;13.32;;
62654;SDS011;48717;55.556;37.816;2023-11-19T14:40:38;32.28;;;14.00;;
62654;SDS011;48717;55.556;37.816;2023-11-19T14:43:08;37.75;;;15.38;;
62654;SDS011;48717;55.556;37.816;2023-11-19T14:45:39;37.33;;;14.63;;
62654;SDS011;48717;55.556;37.816;2023-11-19T14:48:15;25.55;;;10.52;;
62654;SDS011;48717;55.556;37.816;2023-11-19T14:50:44;33.75;;;14.77;;
62654;SDS011;48717;55.556;37.816;2023-11-19T14:53:11;25.63;;;11.70;;
62654;SDS011;48717;55.556;37.816;2023-11-19T14:55:38;35.47;;;13.20;;